Weather at Charles de Gaulle International Airport

Public forecast

Using degrees Celsius for public forecast. Weather courtesy of forecast.io.

Current aviation weather report (METAR) for Charles de Gaulle International Airport

Retrieved 2021/08/04 15:30 UTC (29 minutes ago):

LFPG 041530Z 11003KT 050V170 9999 FEW039 SCT060 21/10 Q1012 NOSIG

Aviation forecast (TAF) for Charles de Gaulle International Airport

Retrieved 2021/08/04 12:21 UTC (4 hours ago):

TAF LFPG 041100Z 0412/0518 15005KT 9999 BKN040 TX22/0413Z TN14/0504Z PROB40 TEMPO 0412/0418 4000 -SHRA SCT020TCU PROB30 0505/0506 4000 BR BECMG 0510/0512 22010KT TEMPO 0514/0518 23015G25KT